Time;durP1;ratioP1;P1;durP2;ratioP2;P2;SDS_P1;SDS_P2;PMS_P1;PMS_P2;Temp;Humidity;BMP_temperature;BMP_pressure;BME280_temperature;BME280_humidity;BME280_pressure;Samples;Min_cycle;Max_cycle;Signal;HPM_P1;HPM_P2
2022/03/23 00:00:43;;;;;;;22.27;11.60;;;11.80;75.90;;;;;;5044221;28;20575;-42
2022/03/23 00:03:10;;;;;;;20.50;11.93;;;11.80;75.90;;;;;;5048684;28;20547;-42
2022/03/23 00:05:38;;;;;;;17.52;11.77;;;11.80;75.90;;;;;;5047500;28;20492;-43
2022/03/23 00:08:04;;;;;;;18.88;11.48;;;11.70;75.90;;;;;;5047833;28;20590;-42
2022/03/23 00:10:30;;;;;;;19.38;12.02;;;11.80;75.90;;;;;;5048277;28;20033;-41
2022/03/23 00:12:57;;;;;;;18.17;12.13;;;11.80;76.00;;;;;;5046886;28;20555;-41
2022/03/23 00:15:23;;;;;;;23.52;12.30;;;11.70;76.00;;;;;;5048655;28;20203;-41
2022/03/23 00:17:48;;;;;;;17.27;11.30;;;11.70;76.10;;;;;;5047653;28;20128;-41
2022/03/23 00:20:15;;;;;;;18.73;11.18;;;11.60;76.10;;;;;;5047841;28;20100;-42
2022/03/23 00:22:40;;;;;;;16.90;10.88;;;11.60;76.20;;;;;;5048410;28;20728;-40
2022/03/23 00:25:08;;;;;;;18.88;11.25;;;11.50;76.20;;;;;;5047688;28;20036;-41
2022/03/23 00:27:34;;;;;;;16.38;10.85;;;11.50;76.30;;;;;;5048482;28;20056;-41
2022/03/23 00:30:00;;;;;;;20.58;12.23;;;11.50;76.40;;;;;;5047418;28;20044;-43
2022/03/23 00:32:26;;;;;;;16.95;11.82;;;11.40;76.40;;;;;;5047122;28;20024;-42
2022/03/23 00:34:51;;;;;;;18.83;11.88;;;11.40;76.60;;;;;;5047217;28;20033;-42
2022/03/23 00:37:17;;;;;;;17.58;12.02;;;11.30;76.70;;;;;;5047781;28;20068;-42
2022/03/23 00:39:43;;;;;;;18.52;11.88;;;11.30;76.80;;;;;;5046895;28;20055;-42
2022/03/23 00:42:08;;;;;;;21.63;12.60;;;11.20;76.90;;;;;;5047627;28;20381;-41
2022/03/23 00:44:34;;;;;;;21.88;13.27;;;11.10;77.20;;;;;;5048012;28;20032;-40
2022/03/23 00:47:00;;;;;;;23.67;15.07;;;11.10;77.60;;;;;;5046003;28;20142;-42
2022/03/23 00:49:26;;;;;;;21.63;13.45;;;11.00;78.00;;;;;;5048014;28;20055;-41
2022/03/23 00:51:53;;;;;;;23.10;14.55;;;10.90;78.20;;;;;;5047278;28;20025;-43
2022/03/23 00:54:19;;;;;;;23.45;14.95;;;10.80;78.50;;;;;;5046776;28;20053;-42
2022/03/23 00:56:46;;;;;;;22.65;13.60;;;10.70;78.70;;;;;;5046395;28;20492;-41
2022/03/23 00:59:13;;;;;;;19.23;13.15;;;10.70;78.90;;;;;;5047597;28;20021;-42
2022/03/23 01:01:39;;;;;;;20.25;12.65;;;10.60;78.90;;;;;;5046659;28;20317;-41
2022/03/23 01:04:05;;;;;;;20.58;13.60;;;10.60;79.00;;;;;;5047221;28;20139;-41
2022/03/23 01:06:31;;;;;;;21.23;13.20;;;10.50;79.20;;;;;;5047667;28;20141;-42
2022/03/23 01:08:57;;;;;;;18.77;13.00;;;10.50;79.40;;;;;;5045950;28;20476;-41
2022/03/23 01:11:23;;;;;;;19.00;12.75;;;10.40;79.60;;;;;;5047492;28;20021;-40
2022/03/23 01:13:48;;;;;;;17.95;12.07;;;10.30;79.70;;;;;;5045478;28;20052;-40
2022/03/23 01:16:16;;;;;;;20.05;12.60;;;10.30;79.70;;;;;;5046309;28;20104;-42
2022/03/23 01:18:42;;;;;;;21.75;13.10;;;10.20;79.70;;;;;;5046822;28;20033;-43
2022/03/23 01:21:07;;;;;;;15.98;11.63;;;10.20;79.70;;;;;;5047052;28;20062;-42
2022/03/23 01:23:33;;;;;;;20.25;11.52;;;10.20;79.70;;;;;;5046233;28;20066;-40
2022/03/23 01:25:58;;;;;;;19.38;11.93;;;10.10;79.70;;;;;;5046837;28;20080;-43
2022/03/23 01:28:24;;;;;;;16.15;11.15;;;10.10;79.60;;;;;;5046097;28;20507;-41
2022/03/23 01:30:49;;;;;;;16.67;10.13;;;10.10;79.60;;;;;;5046269;28;20056;-41
2022/03/23 01:33:15;;;;;;;17.20;10.73;;;10.10;79.60;;;;;;5046938;28;20039;-41
2022/03/23 01:35:40;;;;;;;19.30;12.68;;;10.10;79.40;;;;;;5045940;28;20048;-41
2022/03/23 01:38:06;;;;;;;17.80;11.65;;;10.20;79.10;;;;;;5046540;28;20021;-42
2022/03/23 01:40:31;;;;;;;17.92;11.32;;;10.30;78.90;;;;;;5047272;28;20033;-41
2022/03/23 01:42:57;;;;;;;18.30;12.35;;;10.30;78.60;;;;;;5045099;28;20370;-43
2022/03/23 01:45:22;;;;;;;18.92;10.82;;;10.40;78.40;;;;;;5046667;28;20622;-39
2022/03/23 01:47:48;;;;;;;20.60;11.98;;;10.40;78.20;;;;;;5046514;28;20083;-40
2022/03/23 01:50:13;;;;;;;16.15;11.38;;;10.40;78.00;;;;;;5045810;28;20032;-41
2022/03/23 01:52:40;;;;;;;15.48;11.02;;;10.40;77.90;;;;;;5046697;28;20063;-41
2022/03/23 01:55:09;;;;;;;16.13;11.45;;;10.40;77.90;;;;;;5046211;28;20412;-42
2022/03/23 01:57:35;;;;;;;21.92;11.25;;;10.40;77.80;;;;;;5045654;28;20045;-43
2022/03/23 02:00:02;;;;;;;17.33;10.65;;;10.30;77.60;;;;;;5046309;28;20021;-42
2022/03/23 02:02:27;;;;;;;18.67;11.23;;;10.30;77.40;;;;;;5045959;28;20477;-39
2022/03/23 02:04:53;;;;;;;17.75;10.90;;;10.40;77.20;;;;;;5044750;28;20063;-42
2022/03/23 02:07:19;;;;;;;16.52;10.05;;;10.40;77.10;;;;;;5046379;28;20025;-41
2022/03/23 02:09:45;;;;;;;16.40;10.90;;;10.40;77.00;;;;;;5045185;28;20037;-41
2022/03/23 02:12:11;;;;;;;13.75;9.65;;;10.50;76.70;;;;;;5045493;28;20035;-40
2022/03/23 02:14:37;;;;;;;15.48;10.85;;;10.50;76.50;;;;;;5046537;28;20036;-42
2022/03/23 02:17:06;;;;;;;15.45;9.93;;;10.50;76.20;;;;;;5045036;28;20037;-42
2022/03/23 02:19:33;;;;;;;17.00;10.70;;;10.60;76.10;;;;;;5044865;28;20484;-41
2022/03/23 02:21:59;;;;;;;15.63;10.68;;;10.60;76.00;;;;;;5045653;28;20025;-41
2022/03/23 02:24:27;;;;;;;15.63;9.93;;;10.50;75.90;;;;;;5045290;28;20032;-41
2022/03/23 02:26:54;;;;;;;16.40;11.77;;;10.50;76.00;;;;;;5045159;28;20036;-42
2022/03/23 02:29:20;;;;;;;17.10;11.50;;;10.40;76.10;;;;;;5046020;28;20044;-41
2022/03/23 02:31:46;;;;;;;14.75;11.00;;;10.30;76.30;;;;;;5044657;28;20381;-43
2022/03/23 02:34:14;;;;;;;17.25;12.27;;;10.20;76.40;;;;;;5045455;28;20551;-43
2022/03/23 02:36:40;;;;;;;17.05;11.45;;;10.10;76.70;;;;;;5045897;28;20899;-42
2022/03/23 02:39:06;;;;;;;16.88;11.65;;;10.00;76.90;;;;;;5045036;28;20055;-41
2022/03/23 02:41:31;;;;;;;18.98;12.75;;;9.90;77.00;;;;;;5045552;28;20025;-41
2022/03/23 02:43:57;;;;;;;16.42;12.15;;;9.80;77.10;;;;;;5044911;28;20028;-42
2022/03/23 02:46:23;;;;;;;18.35;11.82;;;9.80;77.30;;;;;;5044588;28;20946;-43
2022/03/23 02:48:51;;;;;;;19.02;12.57;;;9.70;77.60;;;;;;5045154;28;20085;-43
2022/03/23 02:51:18;;;;;;;19.00;12.52;;;9.60;77.80;;;;;;5045191;28;20048;-40
2022/03/23 03:02:22;;;;;;;19.02;12.05;;;9.30;78.60;;;;;;5032903;28;20029;-41
2022/03/23 03:04:51;;;;;;;16.17;11.37;;;9.30;78.80;;;;;;5045222;28;20044;-42
2022/03/23 03:07:19;;;;;;;17.77;11.80;;;9.20;78.80;;;;;;5044843;28;20116;-41
2022/03/23 03:09:45;;;;;;;17.90;12.63;;;9.20;78.90;;;;;;5044415;28;20033;-41
2022/03/23 03:12:11;;;;;;;18.77;11.38;;;9.20;79.00;;;;;;5044840;28;20021;-42
2022/03/23 03:14:38;;;;;;;18.40;11.82;;;9.10;79.10;;;;;;5044955;28;20168;-43
2022/03/23 03:17:05;;;;;;;16.55;11.88;;;9.00;79.20;;;;;;5044449;28;20047;-40
2022/03/23 03:19:30;;;;;;;16.30;12.25;;;9.00;79.50;;;;;;5045361;28;20033;-41
2022/03/23 03:21:56;;;;;;;20.65;12.68;;;9.00;79.80;;;;;;5043950;28;20028;-41
2022/03/23 03:24:22;;;;;;;22.38;13.20;;;8.90;79.90;;;;;;5044951;28;20021;-40
2022/03/23 03:26:48;;;;;;;18.15;12.30;;;8.90;80.10;;;;;;5044424;28;20024;-43
2022/03/23 03:29:14;;;;;;;21.77;12.63;;;8.80;80.30;;;;;;5044343;28;20031;-40
2022/03/23 03:31:40;;;;;;;20.73;12.63;;;8.80;80.50;;;;;;5045034;28;20037;-40
2022/03/23 03:34:05;;;;;;;21.45;13.30;;;8.80;80.70;;;;;;5044971;28;20025;-41
2022/03/23 03:36:31;;;;;;;19.40;12.98;;;8.70;80.70;;;;;;5045139;28;20028;-42
2022/03/23 03:38:57;;;;;;;18.33;12.52;;;8.70;80.90;;;;;;5048385;28;20032;-41
2022/03/23 03:41:22;;;;;;;17.98;12.85;;;8.70;80.90;;;;;;5048802;28;20886;-41
2022/03/23 03:43:51;;;;;;;18.23;12.68;;;8.70;80.80;;;;;;5047716;28;20033;-43
2022/03/23 03:46:17;;;;;;;21.38;13.20;;;8.60;80.70;;;;;;5048909;28;20024;-42
2022/03/23 03:48:42;;;;;;;17.02;12.75;;;8.60;80.70;;;;;;5048212;28;20021;-42
2022/03/23 03:51:08;;;;;;;18.92;12.43;;;8.60;80.60;;;;;;5048393;28;20479;-42
2022/03/23 03:53:35;;;;;;;21.17;13.18;;;8.60;80.40;;;;;;5048545;28;20051;-43
2022/03/23 03:56:01;;;;;;;17.58;12.45;;;8.60;80.40;;;;;;5047463;28;20067;-41
2022/03/23 03:58:26;;;;;;;16.23;12.32;;;8.60;80.30;;;;;;5048659;28;20028;-42
2022/03/23 04:00:52;;;;;;;20.00;13.05;;;8.60;80.30;;;;;;5048021;28;20475;-41
2022/03/23 04:03:17;;;;;;;19.92;13.18;;;8.60;80.40;;;;;;5047597;28;20029;-42
2022/03/23 04:05:44;;;;;;;19.67;13.48;;;8.60;80.50;;;;;;5047941;28;20127;-42
2022/03/23 04:08:09;;;;;;;23.15;14.20;;;8.60;80.50;;;;;;5048434;28;20037;-41
2022/03/23 04:10:35;;;;;;;20.20;13.88;;;8.50;80.60;;;;;;5048112;28;20036;-42
2022/03/23 04:13:01;;;;;;;20.63;13.85;;;8.50;80.60;;;;;;5047576;28;20033;-41
2022/03/23 04:15:27;;;;;;;24.88;14.73;;;8.50;80.70;;;;;;5048401;28;20033;-41
2022/03/23 04:17:54;;;;;;;20.85;13.98;;;8.40;80.70;;;;;;5046900;28;20070;-42
2022/03/23 04:20:19;;;;;;;22.08;14.13;;;8.40;80.90;;;;;;5048618;28;20412;-38
2022/03/23 04:22:45;;;;;;;21.35;14.05;;;8.40;81.00;;;;;;5047657;28;20525;-40
2022/03/23 04:25:12;;;;;;;19.45;13.13;;;8.30;81.00;;;;;;5047398;28;20025;-41
2022/03/23 04:27:49;;;;;;;19.42;14.20;;;8.40;81.20;;;;;;5048131;28;20029;-40
2022/03/23 04:30:17;;;;;;;20.63;14.23;;;8.30;81.40;;;;;;5047989;28;20037;-40
2022/03/23 04:32:44;;;;;;;22.13;14.52;;;8.30;81.50;;;;;;5046573;28;20576;-40
2022/03/23 04:35:10;;;;;;;21.38;15.13;;;8.20;81.60;;;;;;5048405;28;20055;-41
2022/03/23 04:37:35;;;;;;;24.52;15.38;;;8.20;81.90;;;;;;5047508;28;20123;-40
2022/03/23 04:40:02;;;;;;;20.88;14.75;;;8.20;82.00;;;;;;5046398;28;20032;-41
2022/03/23 04:42:28;;;;;;;20.88;14.07;;;8.10;82.10;;;;;;5048224;28;20052;-40
2022/03/23 04:44:53;;;;;;;22.48;14.20;;;8.10;82.10;;;;;;5047366;28;20048;-39
2022/03/23 04:47:19;;;;;;;19.33;13.57;;;8.10;82.30;;;;;;5046865;28;20111;-41
2022/03/23 04:49:44;;;;;;;20.25;13.45;;;8.00;82.50;;;;;;5047034;28;20160;-42
2022/03/23 04:52:11;;;;;;;20.30;15.07;;;8.00;82.50;;;;;;5047163;28;20106;-42
2022/03/23 04:54:37;;;;;;;20.70;14.40;;;8.00;82.70;;;;;;5047805;28;20047;-41
2022/03/23 04:57:03;;;;;;;18.85;14.00;;;7.90;82.70;;;;;;5046960;28;20037;-42
2022/03/23 04:59:29;;;;;;;23.33;15.38;;;7.90;82.80;;;;;;5046965;28;20095;-39
2022/03/23 05:01:55;;;;;;;21.73;15.00;;;7.90;82.90;;;;;;5046844;28;20500;-42
2022/03/23 05:04:20;;;;;;;21.73;13.90;;;7.90;82.90;;;;;;5047944;28;20027;-41
2022/03/23 05:06:46;;;;;;;19.05;12.75;;;7.90;82.80;;;;;;5046254;28;20021;-42
2022/03/23 05:09:11;;;;;;;18.52;12.63;;;7.90;82.70;;;;;;5047347;28;20021;-42
2022/03/23 05:11:37;;;;;;;19.88;13.82;;;7.80;82.40;;;;;;5047411;28;20076;-41
2022/03/23 05:14:02;;;;;;;18.60;12.75;;;7.80;82.40;;;;;;5045583;28;20025;-42
2022/03/23 05:16:29;;;;;;;18.52;13.05;;;7.80;82.40;;;;;;5047304;28;20029;-42
2022/03/23 05:18:55;;;;;;;18.52;13.50;;;7.80;82.40;;;;;;5046976;28;20037;-43
2022/03/23 05:21:20;;;;;;;21.80;13.73;;;7.80;82.40;;;;;;5046616;28;20036;-40
2022/03/23 05:23:46;;;;;;;20.42;13.80;;;7.80;82.40;;;;;;5046398;28;20039;-40
2022/03/23 05:26:11;;;;;;;23.45;14.38;;;7.90;82.30;;;;;;5046734;28;20029;-42
2022/03/23 05:28:37;;;;;;;19.95;13.57;;;7.90;82.10;;;;;;5046857;28;20869;-40
2022/03/23 05:31:02;;;;;;;19.75;13.88;;;7.90;81.90;;;;;;5046014;28;20121;-41
2022/03/23 05:33:28;;;;;;;19.95;14.48;;;8.00;81.70;;;;;;5047072;28;20029;-39
2022/03/23 05:35:54;;;;;;;21.73;13.50;;;8.00;81.50;;;;;;5046291;28;20025;-42
2022/03/23 05:38:19;;;;;;;22.00;14.23;;;8.10;81.30;;;;;;5046283;28;20396;-42
2022/03/23 05:40:45;;;;;;;20.80;13.68;;;8.10;81.20;;;;;;5045659;28;20086;-41
2022/03/23 05:43:10;;;;;;;22.70;14.52;;;8.10;81.10;;;;;;5046695;28;20135;-42
2022/03/23 05:45:36;;;;;;;22.83;14.60;;;8.10;81.30;;;;;;5046552;28;20047;-40
2022/03/23 05:48:02;;;;;;;21.75;14.10;;;8.10;81.30;;;;;;5046198;28;20029;-42
2022/03/23 05:50:27;;;;;;;23.75;14.23;;;8.10;81.40;;;;;;5046292;28;20029;-41
2022/03/23 05:52:53;;;;;;;21.73;14.45;;;8.00;81.40;;;;;;5045821;28;20044;-42
2022/03/23 05:55:18;;;;;;;20.55;13.98;;;8.00;81.60;;;;;;5046200;28;20053;-40
2022/03/23 05:57:44;;;;;;;24.98;14.15;;;7.90;81.60;;;;;;5045650;28;20124;-42
2022/03/23 06:00:10;;;;;;;22.52;14.70;;;7.90;81.80;;;;;;5046174;28;20036;-43
2022/03/23 06:02:36;;;;;;;22.25;13.68;;;7.90;81.80;;;;;;5045394;28;20479;-42
2022/03/23 06:05:04;;;;;;;23.92;14.90;;;7.90;81.90;;;;;;5046253;28;20025;-44
2022/03/23 06:07:30;;;;;;;19.55;13.75;;;7.80;81.90;;;;;;5046101;28;20040;-41
2022/03/23 06:09:55;;;;;;;21.10;13.82;;;7.80;82.00;;;;;;5045472;28;20093;-41
2022/03/23 06:12:21;;;;;;;21.75;14.15;;;7.80;82.00;;;;;;5046158;28;20699;-41
2022/03/23 06:14:47;;;;;;;20.45;13.82;;;7.80;82.10;;;;;;5045671;28;20017;-42
2022/03/23 06:17:12;;;;;;;23.17;14.48;;;7.80;82.10;;;;;;5045411;28;20033;-40
2022/03/23 06:19:38;;;;;;;21.90;14.13;;;7.90;82.10;;;;;;5046180;28;20516;-42
2022/03/23 06:22:05;;;;;;;22.17;14.40;;;7.90;82.10;;;;;;5045451;28;20382;-41
2022/03/23 06:24:31;;;;;;;21.08;14.35;;;7.90;82.10;;;;;;5045711;28;20052;-41
2022/03/23 06:26:56;;;;;;;22.02;13.65;;;7.90;82.20;;;;;;5045537;28;20464;-38
2022/03/23 06:29:22;;;;;;;23.67;14.40;;;7.90;82.20;;;;;;5046250;28;20133;-41
2022/03/23 06:31:47;;;;;;;20.88;14.05;;;8.00;82.30;;;;;;5044999;28;20017;-42
2022/03/23 06:34:16;;;;;;;22.58;14.60;;;8.00;82.30;;;;;;5045735;28;20037;-40
2022/03/23 06:36:41;;;;;;;22.90;14.70;;;8.00;82.30;;;;;;5044611;28;20025;-43
2022/03/23 06:39:07;;;;;;;22.23;14.68;;;8.10;82.40;;;;;;5044706;28;20044;-42
2022/03/23 06:41:33;;;;;;;27.45;14.60;;;8.10;82.40;;;;;;5046661;28;20029;-42
2022/03/23 06:43:59;;;;;;;23.05;14.15;;;8.10;82.30;;;;;;5044888;28;20040;-42
2022/03/23 06:46:24;;;;;;;21.17;14.95;;;8.20;82.20;;;;;;5061834;28;20108;-41
2022/03/23 06:48:50;;;;;;;20.27;13.82;;;8.20;82.10;;;;;;5048314;28;20567;-42
2022/03/23 06:51:16;;;;;;;22.70;13.98;;;8.30;82.00;;;;;;5042731;28;20044;-41
2022/03/23 06:53:42;;;;;;;20.73;13.40;;;8.40;81.90;;;;;;5043295;28;20100;-41
2022/03/23 06:56:09;;;;;;;21.83;14.65;;;8.40;81.70;;;;;;5044611;28;20477;-42
2022/03/23 06:58:35;;;;;;;21.42;14.48;;;8.50;81.70;;;;;;5044908;28;20037;-41
2022/03/23 07:01:00;;;;;;;22.60;14.30;;;8.60;81.60;;;;;;5043212;28;20062;-41
2022/03/23 07:03:27;;;;;;;24.45;15.60;;;8.60;81.50;;;;;;5043883;28;20152;-42
2022/03/23 07:05:52;;;;;;;23.88;14.95;;;8.70;81.50;;;;;;5043240;28;20665;-40
2022/03/23 07:11:05;;;;;;;22.48;15.10;;;8.90;81.40;;;;;;5042957;28;20511;-42
2022/03/23 07:13:32;;;;;;;25.33;17.05;;;8.90;81.30;;;;;;5044030;28;20025;-43
2022/03/23 07:15:57;;;;;;;26.10;16.00;;;9.00;81.30;;;;;;5043319;28;20111;-42
2022/03/23 07:18:23;;;;;;;24.58;15.27;;;9.10;81.30;;;;;;5044189;28;20029;-41
2022/03/23 07:20:49;;;;;;;25.25;15.00;;;9.10;81.30;;;;;;5043592;28;20024;-42
2022/03/23 07:23:14;;;;;;;23.73;15.65;;;9.10;81.20;;;;;;5044017;28;20460;-41
2022/03/23 07:25:40;;;;;;;25.00;15.85;;;9.20;81.30;;;;;;5044005;28;20044;-42
2022/03/23 07:28:06;;;;;;;28.08;17.50;;;9.20;81.20;;;;;;5044002;28;20059;-43
2022/03/23 07:30:39;;;;;;;25.70;15.50;;;9.30;81.00;;;;;;5043678;28;20021;-43
2022/03/23 07:33:05;;;;;;;26.15;16.38;;;9.40;81.00;;;;;;5044080;28;20190;-42
2022/03/23 07:35:31;;;;;;;26.77;16.95;;;9.40;80.90;;;;;;5044369;28;20025;-42
2022/03/23 07:37:57;;;;;;;24.95;15.90;;;9.40;80.80;;;;;;5037759;28;20037;-40
2022/03/23 07:40:22;;;;;;;27.23;16.15;;;9.50;80.80;;;;;;5040442;28;20136;-42
2022/03/23 07:42:48;;;;;;;22.35;15.48;;;9.60;80.80;;;;;;5043542;28;20036;-41
2022/03/23 07:45:14;;;;;;;19.27;14.05;;;9.60;80.80;;;;;;5044486;28;20029;-43
2022/03/23 07:47:40;;;;;;;22.33;15.02;;;9.60;80.80;;;;;;5045088;28;20111;-41
2022/03/23 07:50:06;;;;;;;20.25;14.65;;;9.70;80.80;;;;;;5043941;28;20025;-42
2022/03/23 07:52:32;;;;;;;26.08;17.05;;;9.70;80.70;;;;;;5044454;28;20029;-41
2022/03/23 07:54:57;;;;;;;20.42;14.18;;;9.80;80.70;;;;;;5043952;28;20056;-42
2022/03/23 07:57:23;;;;;;;24.60;15.20;;;9.80;80.60;;;;;;5044096;28;20025;-41
2022/03/23 07:59:48;;;;;;;25.55;16.50;;;9.90;80.50;;;;;;5044429;28;20037;-39
2022/03/23 08:02:14;;;;;;;26.15;16.63;;;10.00;80.30;;;;;;5043672;28;20025;-41
2022/03/23 08:04:40;;;;;;;23.52;16.33;;;10.00;80.30;;;;;;5044025;28;20039;-42
2022/03/23 08:07:07;;;;;;;24.10;15.27;;;10.10;80.30;;;;;;5041667;28;20029;-40
2022/03/23 08:09:32;;;;;;;21.90;15.75;;;10.10;80.20;;;;;;5044257;28;20029;-41
2022/03/23 08:11:58;;;;;;;24.30;16.38;;;10.20;80.20;;;;;;5043645;28;20029;-39
2022/03/23 08:14:24;;;;;;;23.70;15.80;;;10.20;80.20;;;;;;5044619;28;20025;-42
2022/03/23 08:16:52;;;;;;;21.67;14.68;;;10.30;80.30;;;;;;5042597;28;20124;-42
2022/03/23 08:19:19;;;;;;;24.27;16.25;;;10.40;80.40;;;;;;5044502;28;20454;-42
2022/03/23 08:21:44;;;;;;;23.23;14.68;;;10.40;80.40;;;;;;5043754;28;20770;-41
2022/03/23 08:24:10;;;;;;;22.15;16.17;;;10.40;80.40;;;;;;5047218;28;20037;-41
2022/03/23 08:26:35;;;;;;;22.83;14.88;;;10.50;80.50;;;;;;5048033;28;20132;-42
2022/03/23 08:29:01;;;;;;;23.75;15.77;;;10.50;80.40;;;;;;5047154;28;20832;-42
2022/03/23 08:31:26;;;;;;;22.70;15.48;;;10.60;80.50;;;;;;5047335;28;20021;-42
2022/03/23 08:33:52;;;;;;;22.52;16.13;;;10.50;80.50;;;;;;5047365;28;20032;-43
2022/03/23 08:36:17;;;;;;;22.17;15.50;;;10.60;80.60;;;;;;5047709;28;20036;-42
2022/03/23 08:38:43;;;;;;;21.52;14.35;;;10.60;80.70;;;;;;5046883;28;20037;-43
2022/03/23 08:41:08;;;;;;;25.15;17.02;;;10.60;80.70;;;;;;5047394;28;20637;-42
2022/03/23 08:43:34;;;;;;;23.85;16.65;;;10.60;80.70;;;;;;5047915;28;20033;-41
2022/03/23 08:46:00;;;;;;;24.92;16.13;;;10.80;80.70;;;;;;5046388;28;20033;-42
2022/03/23 08:48:26;;;;;;;21.20;15.68;;;10.80;80.60;;;;;;5047557;28;20040;-41
2022/03/23 08:50:52;;;;;;;22.63;15.90;;;10.90;80.60;;;;;;5047122;28;20089;-39
2022/03/23 08:53:18;;;;;;;19.95;14.95;;;11.00;80.40;;;;;;5046351;28;20025;-42
2022/03/23 08:55:44;;;;;;;25.95;17.27;;;11.00;80.30;;;;;;5047575;28;20033;-41
2022/03/23 08:58:10;;;;;;;26.52;17.48;;;11.20;80.30;;;;;;5046905;28;20037;-41
2022/03/23 09:00:36;;;;;;;22.55;15.80;;;11.30;80.30;;;;;;5046791;28;20029;-41
2022/03/23 09:03:05;;;;;;;22.95;16.25;;;11.40;80.40;;;;;;5046975;28;20021;-42
2022/03/23 09:05:31;;;;;;;22.90;16.38;;;11.40;80.30;;;;;;5046874;28;20022;-41
2022/03/23 09:07:56;;;;;;;22.55;16.08;;;11.50;80.30;;;;;;5047105;28;20098;-39
2022/03/23 09:10:23;;;;;;;20.98;15.23;;;11.60;80.30;;;;;;5047539;28;20378;-40
2022/03/23 09:12:48;;;;;;;26.33;16.63;;;11.60;80.30;;;;;;5045551;28;20024;-42
2022/03/23 09:15:16;;;;;;;24.00;15.93;;;11.60;80.20;;;;;;5047110;28;20025;-40
2022/03/23 09:17:42;;;;;;;24.63;16.45;;;11.70;80.20;;;;;;5046097;28;20059;-43
2022/03/23 09:20:10;;;;;;;20.92;15.35;;;11.80;80.20;;;;;;5046642;28;20064;-39
2022/03/23 09:22:36;;;;;;;21.05;15.70;;;11.80;80.10;;;;;;5046617;28;20040;-41
2022/03/23 09:25:06;;;;;;;21.45;14.98;;;11.90;80.10;;;;;;5046733;28;20033;-41
2022/03/23 09:27:42;;;;;;;19.33;14.55;;;11.90;80.10;;;;;;5046400;28;20553;-41
2022/03/23 09:30:08;;;;;;;25.08;16.35;;;12.00;80.10;;;;;;5046801;28;20017;-40
2022/03/23 09:32:34;;;;;;;20.70;15.43;;;12.10;80.10;;;;;;5044890;28;20198;-42
2022/03/23 09:35:00;;;;;;;22.17;16.15;;;12.10;80.00;;;;;;5044534;28;20617;-42
2022/03/23 09:40:10;;;;;;;19.65;14.63;;;12.30;79.70;;;;;;5046667;28;20467;-38
2022/03/23 09:42:38;;;;;;;26.98;17.05;;;12.40;79.50;;;;;;5045749;28;20032;-40
2022/03/23 09:45:04;;;;;;;24.15;15.93;;;12.40;79.40;;;;;;5046221;28;20056;-42
2022/03/23 09:47:30;;;;;;;21.55;16.02;;;12.50;79.40;;;;;;5047089;28;20040;-41
2022/03/23 09:49:56;;;;;;;22.15;15.75;;;12.60;79.40;;;;;;5045859;28;20025;-42
2022/03/23 09:52:21;;;;;;;22.58;17.13;;;12.70;79.30;;;;;;5046496;28;20040;-41
2022/03/23 09:54:47;;;;;;;24.08;16.27;;;12.70;79.10;;;;;;5043892;28;20052;-43
2022/03/23 09:57:13;;;;;;;21.95;15.10;;;12.80;79.00;;;;;;5045879;28;20118;-40
2022/03/23 09:59:40;;;;;;;22.85;16.23;;;12.90;79.00;;;;;;5046326;28;20013;-40
2022/03/23 10:02:05;;;;;;;20.60;14.85;;;12.90;78.80;;;;;;5045767;28;20072;-42
2022/03/23 10:04:49;;;;;;;21.77;16.17;;;13.00;78.70;;;;;;5046014;28;20063;-42
2022/03/23 10:07:25;;;;;;;23.75;17.45;;;13.10;78.40;;;;;;5045122;28;20051;-41
2022/03/23 10:10:21;;;;;;;24.63;17.73;;;13.20;78.20;;;;;;5044168;28;20032;-39
2022/03/23 10:13:24;;;;;;;25.67;15.90;;;13.30;77.70;;;;;;5045796;28;20024;-40
2022/03/23 10:16:08;;;;;;;24.63;16.98;;;13.40;77.40;;;;;;5042764;28;20021;-42
2022/03/23 10:18:49;;;;;;;22.13;15.65;;;13.50;77.10;;;;;;5045287;28;20051;-42
2022/03/23 10:21:16;;;;;;;21.00;15.03;;;13.50;76.80;;;;;;5045489;28;20023;-41
2022/03/23 10:23:58;;;;;;;23.85;17.48;;;13.60;76.60;;;;;;5045228;28;20104;-41
2022/03/23 10:26:24;;;;;;;22.33;16.33;;;13.70;75.70;;;;;;5045589;28;20032;-42
2022/03/23 10:28:50;;;;;;;21.50;15.65;;;13.80;75.50;;;;;;5045490;28;20122;-41
2022/03/23 10:31:17;;;;;;;21.55;15.55;;;13.90;75.60;;;;;;5046502;28;20071;-42
2022/03/23 10:33:44;;;;;;;20.50;15.27;;;13.90;75.30;;;;;;5045831;28;20028;-43
2022/03/23 10:36:11;;;;;;;19.55;15.40;;;14.00;74.90;;;;;;5045459;28;20385;-42
2022/03/23 10:38:39;;;;;;;22.45;15.95;;;14.00;74.80;;;;;;5045069;28;20043;-42
2022/03/23 10:41:10;;;;;;;21.73;16.55;;;14.10;74.40;;;;;;5045106;28;20373;-42
2022/03/23 10:43:38;;;;;;;20.00;15.77;;;14.20;73.70;;;;;;5045015;28;20033;-42
2022/03/23 10:46:08;;;;;;;21.98;16.70;;;14.30;73.50;;;;;;5044165;28;20017;-43
2022/03/23 10:48:33;;;;;;;22.60;16.83;;;14.40;73.30;;;;;;5045607;28;20496;-41
2022/03/23 10:51:00;;;;;;;21.48;15.95;;;14.50;73.20;;;;;;5044044;28;20104;-42
2022/03/23 10:53:38;;;;;;;19.95;15.52;;;14.50;73.10;;;;;;5045509;28;20038;-43
2022/03/23 10:56:04;;;;;;;21.23;15.38;;;14.60;73.10;;;;;;5044732;28;20489;-42
2022/03/23 10:58:30;;;;;;;21.80;15.43;;;14.60;72.80;;;;;;5044797;28;20037;-40
2022/03/23 11:01:15;;;;;;;24.05;17.73;;;14.60;72.60;;;;;;5044973;28;20044;-43
2022/03/23 11:03:42;;;;;;;23.80;17.20;;;14.70;72.00;;;;;;5035977;28;20071;-41
2022/03/23 11:06:17;;;;;;;21.92;15.68;;;14.80;71.70;;;;;;5044360;28;20041;-35
2022/03/23 11:08:44;;;;;;;20.67;15.88;;;14.90;71.60;;;;;;5053366;28;20036;-41
2022/03/23 11:16:48;;;;;;;19.70;13.80;;;15.00;71.70;;;;;;5043096;28;20453;-42
2022/03/23 11:19:23;;;;;;;16.98;13.65;;;15.00;71.30;;;;;;5042891;28;20048;-40
2022/03/23 11:22:01;;;;;;;15.98;12.52;;;15.00;71.50;;;;;;5044133;28;20096;-41
2022/03/23 11:24:28;;;;;;;18.30;13.32;;;15.00;71.60;;;;;;5045277;28;20103;-42
2022/03/23 11:26:57;;;;;;;17.67;12.90;;;15.10;71.50;;;;;;5043322;28;20524;-42
2022/03/23 11:29:23;;;;;;;20.17;13.98;;;15.10;70.80;;;;;;5045133;28;20037;-42
2022/03/23 11:31:49;;;;;;;19.42;13.52;;;15.20;70.00;;;;;;5044165;28;20065;-43
2022/03/23 11:34:19;;;;;;;19.92;14.68;;;15.30;69.20;;;;;;5043851;28;20491;-43
2022/03/23 11:36:47;;;;;;;18.50;14.05;;;15.40;69.00;;;;;;5043835;28;20435;-41
2022/03/23 11:39:13;;;;;;;18.05;13.85;;;15.50;69.00;;;;;;5044574;28;20717;-43
2022/03/23 11:41:43;;;;;;;17.02;12.90;;;15.50;69.00;;;;;;5044284;28;20029;-42
2022/03/23 11:44:12;;;;;;;18.77;12.75;;;15.50;68.90;;;;;;5044196;28;20483;-40
2022/03/23 11:46:39;;;;;;;17.55;12.05;;;15.60;69.00;;;;;;5044770;28;20025;-43
2022/03/23 11:49:19;;;;;;;16.67;11.15;;;15.60;68.60;;;;;;5043450;28;20029;-42
2022/03/23 11:52:02;;;;;;;14.80;10.52;;;15.60;68.60;;;;;;5044607;28;20112;-42
2022/03/23 11:55:37;;;;;;;;;;;15.60;68.20;;;;;;5044097;28;20048;-42
2022/03/23 11:57:21;;;;;;;15.02;11.40;;;15.70;68.20;;;;;;5045226;28;20364;-41
2022/03/23 11:59:47;;;;;;;16.30;13.10;;;15.70;68.20;;;;;;5048111;28;20056;-44
2022/03/23 12:02:17;;;;;;;20.15;13.15;;;15.70;68.30;;;;;;5048307;28;20041;-42
2022/03/23 12:04:42;;;;;;;22.67;15.45;;;15.80;68.40;;;;;;5048150;28;20096;-43
2022/03/23 12:07:10;;;;;;;19.90;14.40;;;15.80;68.50;;;;;;5048437;28;20120;-42
2022/03/23 12:09:41;;;;;;;18.30;13.48;;;15.80;68.60;;;;;;5048293;28;20025;-41
2022/03/23 12:12:29;;;;;;;18.50;13.63;;;15.80;68.40;;;;;;5047790;28;20884;-43
2022/03/23 12:15:21;;;;;;;15.27;11.75;;;15.80;68.40;;;;;;5047575;28;20523;-42
2022/03/23 12:17:58;;;;;;;17.05;11.65;;;15.90;68.40;;;;;;5048480;28;20085;-42
2022/03/23 12:20:28;;;;;;;15.75;11.38;;;16.00;68.20;;;;;;5047201;28;20029;-41
2022/03/23 12:23:05;;;;;;;16.17;11.40;;;16.00;67.50;;;;;;5047303;28;20055;-42
2022/03/23 12:25:37;;;;;;;19.13;13.23;;;16.00;67.50;;;;;;5048202;28;20029;-43
2022/03/23 12:28:34;;;;;;;16.13;11.70;;;16.10;67.60;;;;;;5048452;28;20029;-43
2022/03/23 12:31:08;;;;;;;15.15;11.32;;;16.20;67.80;;;;;;5043660;28;20109;-42
2022/03/23 12:33:56;;;;;;;18.13;11.48;;;16.20;67.90;;;;;;5046576;28;20564;-43
2022/03/23 12:39:33;;;;;;;14.40;9.93;;;16.10;67.50;;;;;;5048353;28;20044;-41
2022/03/23 12:42:16;;;;;;;13.05;10.27;;;16.20;67.40;;;;;;5047506;28;20032;-43
2022/03/23 12:45:00;;;;;;;12.73;8.95;;;16.20;67.10;;;;;;5046740;28;20032;-41
2022/03/23 12:47:28;;;;;;;13.90;10.63;;;16.20;67.10;;;;;;5048604;28;20511;-43
2022/03/23 12:58:34;;;;;;;13.95;8.77;;;16.30;67.20;;;;;;5027274;28;20064;-42
2022/03/23 13:01:14;;;;;;;15.18;9.18;;;16.30;67.10;;;;;;5041605;28;20357;-43
2022/03/23 13:03:43;;;;;;;12.82;8.82;;;16.40;67.00;;;;;;5047777;28;20033;-40